sensor_id;sensor_type;location;lat;lon;timestamp;temperature;humidity
7846;DHT22;3968;51.424;6.788;2023-07-29T00:00:42;19.30;99.90
7846;DHT22;3968;51.424;6.788;2023-07-29T00:03:08;19.20;99.90
7846;DHT22;3968;51.424;6.788;2023-07-29T00:05:33;19.20;99.90
7846;DHT22;3968;51.424;6.788;2023-07-29T00:07:59;19.10;99.90
7846;DHT22;3968;51.424;6.788;2023-07-29T00:10:25;19.20;99.90
7846;DHT22;3968;51.424;6.788;2023-07-29T00:12:51;19.10;99.90
7846;DHT22;3968;51.424;6.788;2023-07-29T00:15:17;19.10;99.90
7846;DHT22;3968;51.424;6.788;2023-07-29T00:17:42;19.10;99.90
7846;DHT22;3968;51.424;6.788;2023-07-29T00:20:08;19.10;99.90
7846;DHT22;3968;51.424;6.788;2023-07-29T00:22:34;19.10;99.90
7846;DHT22;3968;51.424;6.788;2023-07-29T00:24:59;19.10;99.90
7846;DHT22;3968;51.424;6.788;2023-07-29T00:27:25;19.20;99.90
7846;DHT22;3968;51.424;6.788;2023-07-29T00:29:51;19.00;99.90
7846;DHT22;3968;51.424;6.788;2023-07-29T00:32:17;19.10;99.90
7846;DHT22;3968;51.424;6.788;2023-07-29T00:34:42;19.00;99.90
7846;DHT22;3968;51.424;6.788;2023-07-29T00:37:08;19.10;99.90
7846;DHT22;3968;51.424;6.788;2023-07-29T00:39:34;19.00;99.90
7846;DHT22;3968;51.424;6.788;2023-07-29T00:42:00;19.10;99.90
7846;DHT22;3968;51.424;6.788;2023-07-29T00:44:25;19.00;99.90
7846;DHT22;3968;51.424;6.788;2023-07-29T00:46:54;19.00;99.90
7846;DHT22;3968;51.424;6.788;2023-07-29T00:49:21;19.00;99.90
7846;DHT22;3968;51.424;6.788;2023-07-29T00:51:47;19.10;99.90
7846;DHT22;3968;51.424;6.788;2023-07-29T00:54:13;19.00;99.90
7846;DHT22;3968;51.424;6.788;2023-07-29T00:56:39;19.00;99.90
7846;DHT22;3968;51.424;6.788;2023-07-29T00:59:05;19.10;99.90
7846;DHT22;3968;51.424;6.788;2023-07-29T01:01:31;19.00;99.90
7846;DHT22;3968;51.424;6.788;2023-07-29T01:03:58;19.00;99.90
7846;DHT22;3968;51.424;6.788;2023-07-29T01:06:50;19.00;99.90
7846;DHT22;3968;51.424;6.788;2023-07-29T01:10:00;19.00;99.90
7846;DHT22;3968;51.424;6.788;2023-07-29T01:12:39;19.10;99.90
7846;DHT22;3968;51.424;6.788;2023-07-29T01:17:43;19.20;99.90
7846;DHT22;3968;51.424;6.788;2023-07-29T01:20:14;19.20;99.90
7846;DHT22;3968;51.424;6.788;2023-07-29T01:22:41;19.20;99.90
7846;DHT22;3968;51.424;6.788;2023-07-29T01:25:07;19.20;99.90
7846;DHT22;3968;51.424;6.788;2023-07-29T01:27:33;19.20;99.90
7846;DHT22;3968;51.424;6.788;2023-07-29T01:29:59;19.20;99.90
7846;DHT22;3968;51.424;6.788;2023-07-29T01:35:35;19.10;99.90
7846;DHT22;3968;51.424;6.788;2023-07-29T01:38:17;19.10;99.90
7846;DHT22;3968;51.424;6.788;2023-07-29T01:40:44;19.30;99.90
7846;DHT22;3968;51.424;6.788;2023-07-29T01:43:11;19.20;99.90
7846;DHT22;3968;51.424;6.788;2023-07-29T01:48:05;19.20;99.90
7846;DHT22;3968;51.424;6.788;2023-07-29T01:50:31;19.10;99.90
7846;DHT22;3968;51.424;6.788;2023-07-29T01:53:00;19.10;99.90
7846;DHT22;3968;51.424;6.788;2023-07-29T01:55:26;19.20;99.90
7846;DHT22;3968;51.424;6.788;2023-07-29T01:57:51;19.20;99.90
7846;DHT22;3968;51.424;6.788;2023-07-29T02:00:18;19.10;99.90
7846;DHT22;3968;51.424;6.788;2023-07-29T02:02:45;19.20;99.90
7846;DHT22;3968;51.424;6.788;2023-07-29T02:05:10;19.20;99.90
7846;DHT22;3968;51.424;6.788;2023-07-29T02:07:36;19.20;99.90
7846;DHT22;3968;51.424;6.788;2023-07-29T02:10:01;19.10;99.90
7846;DHT22;3968;51.424;6.788;2023-07-29T02:12:27;19.20;99.90
7846;DHT22;3968;51.424;6.788;2023-07-29T02:14:53;19.20;99.90
7846;DHT22;3968;51.424;6.788;2023-07-29T02:17:18;19.20;99.90
7846;DHT22;3968;51.424;6.788;2023-07-29T02:19:44;19.20;99.90
7846;DHT22;3968;51.424;6.788;2023-07-29T02:22:13;19.30;99.90
7846;DHT22;3968;51.424;6.788;2023-07-29T02:24:40;19.20;99.90
7846;DHT22;3968;51.424;6.788;2023-07-29T02:27:06;19.30;99.90
7846;DHT22;3968;51.424;6.788;2023-07-29T02:29:31;19.30;99.90
7846;DHT22;3968;51.424;6.788;2023-07-29T02:31:58;19.20;99.90
7846;DHT22;3968;51.424;6.788;2023-07-29T02:34:24;19.20;99.90
7846;DHT22;3968;51.424;6.788;2023-07-29T02:36:50;19.30;99.90
7846;DHT22;3968;51.424;6.788;2023-07-29T02:39:15;19.30;99.90
7846;DHT22;3968;51.424;6.788;2023-07-29T02:41:41;19.30;99.90
7846;DHT22;3968;51.424;6.788;2023-07-29T02:44:06;19.40;99.90
7846;DHT22;3968;51.424;6.788;2023-07-29T02:46:32;19.30;99.90
7846;DHT22;3968;51.424;6.788;2023-07-29T02:48:58;19.40;99.90
7846;DHT22;3968;51.424;6.788;2023-07-29T02:51:23;19.30;99.90
7846;DHT22;3968;51.424;6.788;2023-07-29T02:53:49;19.20;99.90
7846;DHT22;3968;51.424;6.788;2023-07-29T02:56:14;19.30;99.90
7846;DHT22;3968;51.424;6.788;2023-07-29T02:58:40;19.20;99.90
7846;DHT22;3968;51.424;6.788;2023-07-29T03:01:06;19.30;99.90
7846;DHT22;3968;51.424;6.788;2023-07-29T03:03:32;19.30;99.90
7846;DHT22;3968;51.424;6.788;2023-07-29T03:06:03;19.20;99.90
7846;DHT22;3968;51.424;6.788;2023-07-29T03:08:29;19.40;99.90
7846;DHT22;3968;51.424;6.788;2023-07-29T03:10:56;19.20;99.90
7846;DHT22;3968;51.424;6.788;2023-07-29T03:13:22;19.30;99.90
7846;DHT22;3968;51.424;6.788;2023-07-29T03:15:47;19.40;99.90
7846;DHT22;3968;51.424;6.788;2023-07-29T03:18:13;19.40;99.90
7846;DHT22;3968;51.424;6.788;2023-07-29T03:20:38;19.30;99.90
7846;DHT22;3968;51.424;6.788;2023-07-29T03:23:04;19.20;99.90
7846;DHT22;3968;51.424;6.788;2023-07-29T03:25:29;19.30;99.90
7846;DHT22;3968;51.424;6.788;2023-07-29T03:27:55;19.40;99.90
7846;DHT22;3968;51.424;6.788;2023-07-29T03:30:22;19.40;99.90
7846;DHT22;3968;51.424;6.788;2023-07-29T03:32:48;19.30;99.90
7846;DHT22;3968;51.424;6.788;2023-07-29T03:35:14;19.30;99.90
7846;DHT22;3968;51.424;6.788;2023-07-29T03:37:40;19.30;99.90
7846;DHT22;3968;51.424;6.788;2023-07-29T03:40:06;19.30;99.90
7846;DHT22;3968;51.424;6.788;2023-07-29T03:42:32;19.30;99.90
7846;DHT22;3968;51.424;6.788;2023-07-29T03:44:58;19.30;99.90
7846;DHT22;3968;51.424;6.788;2023-07-29T03:47:24;19.20;99.90
7846;DHT22;3968;51.424;6.788;2023-07-29T03:49:49;19.40;99.90
7846;DHT22;3968;51.424;6.788;2023-07-29T03:52:15;19.30;99.90
7846;DHT22;3968;51.424;6.788;2023-07-29T03:54:41;19.30;99.90
7846;DHT22;3968;51.424;6.788;2023-07-29T03:57:06;19.30;99.90
7846;DHT22;3968;51.424;6.788;2023-07-29T03:59:32;19.20;99.90
7846;DHT22;3968;51.424;6.788;2023-07-29T04:01:57;19.20;99.90
7846;DHT22;3968;51.424;6.788;2023-07-29T04:04:23;19.30;99.90
7846;DHT22;3968;51.424;6.788;2023-07-29T04:06:49;19.10;99.90
7846;DHT22;3968;51.424;6.788;2023-07-29T04:09:14;19.30;99.90
7846;DHT22;3968;51.424;6.788;2023-07-29T04:11:40;19.20;99.90
7846;DHT22;3968;51.424;6.788;2023-07-29T04:14:05;19.30;99.90
7846;DHT22;3968;51.424;6.788;2023-07-29T04:16:31;19.20;99.90
7846;DHT22;3968;51.424;6.788;2023-07-29T04:18:57;19.10;99.90
7846;DHT22;3968;51.424;6.788;2023-07-29T04:21:22;19.20;99.90
7846;DHT22;3968;51.424;6.788;2023-07-29T04:23:48;19.10;99.90
7846;DHT22;3968;51.424;6.788;2023-07-29T04:26:13;19.10;99.90
7846;DHT22;3968;51.424;6.788;2023-07-29T04:28:39;19.20;99.90
7846;DHT22;3968;51.424;6.788;2023-07-29T04:31:05;19.20;99.90
7846;DHT22;3968;51.424;6.788;2023-07-29T04:33:30;19.20;99.90
7846;DHT22;3968;51.424;6.788;2023-07-29T04:35:56;19.10;99.90
7846;DHT22;3968;51.424;6.788;2023-07-29T04:38:23;19.00;99.90
7846;DHT22;3968;51.424;6.788;2023-07-29T04:40:50;19.20;99.90
7846;DHT22;3968;51.424;6.788;2023-07-29T04:43:15;19.10;99.90
7846;DHT22;3968;51.424;6.788;2023-07-29T04:45:44;19.20;99.90
7846;DHT22;3968;51.424;6.788;2023-07-29T04:48:10;19.00;99.90
7846;DHT22;3968;51.424;6.788;2023-07-29T04:50:36;19.00;99.90
7846;DHT22;3968;51.424;6.788;2023-07-29T04:53:01;19.10;99.90
7846;DHT22;3968;51.424;6.788;2023-07-29T04:55:27;19.10;99.90
7846;DHT22;3968;51.424;6.788;2023-07-29T04:57:53;19.10;99.90
7846;DHT22;3968;51.424;6.788;2023-07-29T05:00:18;19.00;99.90
7846;DHT22;3968;51.424;6.788;2023-07-29T05:02:44;19.10;99.90
7846;DHT22;3968;51.424;6.788;2023-07-29T05:05:09;19.10;99.90
7846;DHT22;3968;51.424;6.788;2023-07-29T05:07:35;19.00;99.90
7846;DHT22;3968;51.424;6.788;2023-07-29T05:10:01;19.10;99.90
7846;DHT22;3968;51.424;6.788;2023-07-29T05:12:26;19.10;99.90
7846;DHT22;3968;51.424;6.788;2023-07-29T05:14:52;19.20;99.90
7846;DHT22;3968;51.424;6.788;2023-07-29T05:17:17;19.10;99.90
7846;DHT22;3968;51.424;6.788;2023-07-29T05:19:43;19.30;99.90
7846;DHT22;3968;51.424;6.788;2023-07-29T05:22:10;19.30;99.90
7846;DHT22;3968;51.424;6.788;2023-07-29T05:24:35;19.30;99.90
7846;DHT22;3968;51.424;6.788;2023-07-29T05:27:01;19.20;99.90
7846;DHT22;3968;51.424;6.788;2023-07-29T05:29:26;19.20;99.90
7846;DHT22;3968;51.424;6.788;2023-07-29T05:31:52;19.30;99.90
7846;DHT22;3968;51.424;6.788;2023-07-29T05:34:18;19.30;99.90
7846;DHT22;3968;51.424;6.788;2023-07-29T05:36:44;19.30;99.90
7846;DHT22;3968;51.424;6.788;2023-07-29T05:39:09;19.10;99.90
7846;DHT22;3968;51.424;6.788;2023-07-29T05:41:35;19.20;99.90
7846;DHT22;3968;51.424;6.788;2023-07-29T05:44:01;19.10;99.90
7846;DHT22;3968;51.424;6.788;2023-07-29T05:46:26;19.20;99.90
7846;DHT22;3968;51.424;6.788;2023-07-29T05:48:52;19.20;99.90
7846;DHT22;3968;51.424;6.788;2023-07-29T05:51:17;19.20;99.90
7846;DHT22;3968;51.424;6.788;2023-07-29T05:53:43;19.10;99.90
7846;DHT22;3968;51.424;6.788;2023-07-29T05:56:09;19.20;99.90
7846;DHT22;3968;51.424;6.788;2023-07-29T05:58:35;19.10;99.90
7846;DHT22;3968;51.424;6.788;2023-07-29T06:01:01;19.00;99.90
7846;DHT22;3968;51.424;6.788;2023-07-29T06:03:27;19.10;99.90
7846;DHT22;3968;51.424;6.788;2023-07-29T06:05:53;19.10;99.90
7846;DHT22;3968;51.424;6.788;2023-07-29T06:08:19;19.10;99.90
7846;DHT22;3968;51.424;6.788;2023-07-29T06:10:44;19.00;99.90
7846;DHT22;3968;51.424;6.788;2023-07-29T06:13:10;19.00;99.90
7846;DHT22;3968;51.424;6.788;2023-07-29T06:15:35;19.10;99.90
7846;DHT22;3968;51.424;6.788;2023-07-29T06:18:01;19.00;99.90
7846;DHT22;3968;51.424;6.788;2023-07-29T06:20:27;19.20;99.90
7846;DHT22;3968;51.424;6.788;2023-07-29T06:22:52;19.10;99.90
7846;DHT22;3968;51.424;6.788;2023-07-29T06:25:18;19.10;99.90
7846;DHT22;3968;51.424;6.788;2023-07-29T06:27:43;19.20;99.90
7846;DHT22;3968;51.424;6.788;2023-07-29T06:30:09;19.20;99.90
7846;DHT22;3968;51.424;6.788;2023-07-29T06:32:35;19.20;99.90
7846;DHT22;3968;51.424;6.788;2023-07-29T06:35:00;19.30;99.90
7846;DHT22;3968;51.424;6.788;2023-07-29T06:37:26;19.20;99.90
7846;DHT22;3968;51.424;6.788;2023-07-29T06:39:52;19.30;99.90
7846;DHT22;3968;51.424;6.788;2023-07-29T06:42:17;19.30;99.90
7846;DHT22;3968;51.424;6.788;2023-07-29T06:44:43;19.30;99.90
7846;DHT22;3968;51.424;6.788;2023-07-29T06:47:11;19.30;99.90
7846;DHT22;3968;51.424;6.788;2023-07-29T06:49:37;19.50;99.90
7846;DHT22;3968;51.424;6.788;2023-07-29T06:52:03;19.60;99.90
7846;DHT22;3968;51.424;6.788;2023-07-29T06:54:28;19.70;99.90
7846;DHT22;3968;51.424;6.788;2023-07-29T06:56:54;19.70;99.90
7846;DHT22;3968;51.424;6.788;2023-07-29T06:59:20;19.70;99.90
7846;DHT22;3968;51.424;6.788;2023-07-29T07:01:46;19.70;99.90
7846;DHT22;3968;51.424;6.788;2023-07-29T07:04:11;19.70;99.90
7846;DHT22;3968;51.424;6.788;2023-07-29T07:06:37;19.70;99.90
7846;DHT22;3968;51.424;6.788;2023-07-29T07:09:03;19.80;99.90
7846;DHT22;3968;51.424;6.788;2023-07-29T07:11:29;19.70;99.90
7846;DHT22;3968;51.424;6.788;2023-07-29T07:13:54;19.70;99.90
7846;DHT22;3968;51.424;6.788;2023-07-29T07:16:20;19.70;99.90
7846;DHT22;3968;51.424;6.788;2023-07-29T07:18:45;19.80;99.90
7846;DHT22;3968;51.424;6.788;2023-07-29T07:21:11;19.90;99.90
7846;DHT22;3968;51.424;6.788;2023-07-29T07:23:38;19.90;99.90
7846;DHT22;3968;51.424;6.788;2023-07-29T07:26:03;19.90;99.90
7846;DHT22;3968;51.424;6.788;2023-07-29T07:28:29;19.90;99.90
7846;DHT22;3968;51.424;6.788;2023-07-29T07:30:54;19.90;99.90
7846;DHT22;3968;51.424;6.788;2023-07-29T07:33:21;19.90;99.90
7846;DHT22;3968;51.424;6.788;2023-07-29T07:35:47;19.90;99.90
7846;DHT22;3968;51.424;6.788;2023-07-29T07:38:12;19.90;99.90
7846;DHT22;3968;51.424;6.788;2023-07-29T07:40:38;19.90;99.90
7846;DHT22;3968;51.424;6.788;2023-07-29T07:43:04;19.90;99.90
7846;DHT22;3968;51.424;6.788;2023-07-29T07:45:29;19.90;99.90
7846;DHT22;3968;51.424;6.788;2023-07-29T07:47:57;20.00;99.90
7846;DHT22;3968;51.424;6.788;2023-07-29T07:50:22;20.00;99.90
7846;DHT22;3968;51.424;6.788;2023-07-29T07:52:49;20.00;99.90
7846;DHT22;3968;51.424;6.788;2023-07-29T07:55:15;20.10;99.90
7846;DHT22;3968;51.424;6.788;2023-07-29T07:57:40;20.10;99.90
7846;DHT22;3968;51.424;6.788;2023-07-29T08:00:06;20.00;99.90
7846;DHT22;3968;51.424;6.788;2023-07-29T08:02:32;20.10;99.90
7846;DHT22;3968;51.424;6.788;2023-07-29T08:04:58;20.10;99.90
7846;DHT22;3968;51.424;6.788;2023-07-29T08:07:23;20.00;99.90
7846;DHT22;3968;51.424;6.788;2023-07-29T08:09:49;20.10;99.90
7846;DHT22;3968;51.424;6.788;2023-07-29T08:12:14;20.10;99.90
7846;DHT22;3968;51.424;6.788;2023-07-29T08:14:40;20.20;99.90
7846;DHT22;3968;51.424;6.788;2023-07-29T08:17:06;20.20;99.90
7846;DHT22;3968;51.424;6.788;2023-07-29T08:19:32;20.20;99.90
7846;DHT22;3968;51.424;6.788;2023-07-29T08:21:57;20.20;99.90
7846;DHT22;3968;51.424;6.788;2023-07-29T08:24:23;20.30;99.90
7846;DHT22;3968;51.424;6.788;2023-07-29T08:26:49;20.40;99.90
7846;DHT22;3968;51.424;6.788;2023-07-29T08:29:15;20.40;99.90
7846;DHT22;3968;51.424;6.788;2023-07-29T08:31:40;20.40;99.90
7846;DHT22;3968;51.424;6.788;2023-07-29T08:34:06;20.50;99.90
7846;DHT22;3968;51.424;6.788;2023-07-29T08:36:32;20.50;99.90
7846;DHT22;3968;51.424;6.788;2023-07-29T08:38:57;20.50;99.90
7846;DHT22;3968;51.424;6.788;2023-07-29T08:41:28;20.60;99.90
7846;DHT22;3968;51.424;6.788;2023-07-29T08:44:09;20.60;99.90
7846;DHT22;3968;51.424;6.788;2023-07-29T08:46:35;20.70;99.90
7846;DHT22;3968;51.424;6.788;2023-07-29T08:49:02;20.80;99.90
7846;DHT22;3968;51.424;6.788;2023-07-29T08:51:29;20.90;99.90
7846;DHT22;3968;51.424;6.788;2023-07-29T08:53:56;21.00;99.90
7846;DHT22;3968;51.424;6.788;2023-07-29T08:56:24;21.10;99.90
7846;DHT22;3968;51.424;6.788;2023-07-29T08:58:50;21.20;99.90
7846;DHT22;3968;51.424;6.788;2023-07-29T09:01:16;21.30;99.90
7846;DHT22;3968;51.424;6.788;2023-07-29T09:03:42;21.40;99.90
7846;DHT22;3968;51.424;6.788;2023-07-29T09:06:08;21.50;99.90
7846;DHT22;3968;51.424;6.788;2023-07-29T09:08:34;21.50;99.90
7846;DHT22;3968;51.424;6.788;2023-07-29T09:11:00;21.50;99.90
7846;DHT22;3968;51.424;6.788;2023-07-29T09:13:26;21.50;99.90
7846;DHT22;3968;51.424;6.788;2023-07-29T09:15:57;21.50;99.90
7846;DHT22;3968;51.424;6.788;2023-07-29T09:18:23;21.50;99.90
7846;DHT22;3968;51.424;6.788;2023-07-29T09:20:50;21.60;99.90
7846;DHT22;3968;51.424;6.788;2023-07-29T09:23:16;21.60;99.90
7846;DHT22;3968;51.424;6.788;2023-07-29T09:25:42;21.60;99.90
7846;DHT22;3968;51.424;6.788;2023-07-29T09:28:16;21.70;99.90
7846;DHT22;3968;51.424;6.788;2023-07-29T09:30:45;21.80;99.90
7846;DHT22;3968;51.424;6.788;2023-07-29T09:33:11;21.80;99.90
7846;DHT22;3968;51.424;6.788;2023-07-29T09:35:38;21.70;99.90
7846;DHT22;3968;51.424;6.788;2023-07-29T09:38:07;21.70;99.90
7846;DHT22;3968;51.424;6.788;2023-07-29T09:40:40;21.60;99.90
7846;DHT22;3968;51.424;6.788;2023-07-29T09:43:06;21.40;99.90
7846;DHT22;3968;51.424;6.788;2023-07-29T09:45:34;21.50;99.90
7846;DHT22;3968;51.424;6.788;2023-07-29T09:48:01;21.50;99.90
7846;DHT22;3968;51.424;6.788;2023-07-29T09:50:27;21.60;99.90
7846;DHT22;3968;51.424;6.788;2023-07-29T09:52:54;21.80;99.90
7846;DHT22;3968;51.424;6.788;2023-07-29T09:55:24;21.90;99.90
7846;DHT22;3968;51.424;6.788;2023-07-29T09:57:57;22.00;99.90
7846;DHT22;3968;51.424;6.788;2023-07-29T10:00:25;22.00;99.90
7846;DHT22;3968;51.424;6.788;2023-07-29T10:02:52;22.00;99.90
7846;DHT22;3968;51.424;6.788;2023-07-29T10:05:18;22.00;99.90
7846;DHT22;3968;51.424;6.788;2023-07-29T10:07:45;22.00;99.90
7846;DHT22;3968;51.424;6.788;2023-07-29T10:10:12;22.00;99.90
7846;DHT22;3968;51.424;6.788;2023-07-29T10:12:39;22.10;99.90
7846;DHT22;3968;51.424;6.788;2023-07-29T10:15:08;22.20;99.90
7846;DHT22;3968;51.424;6.788;2023-07-29T10:17:36;22.40;99.90
7846;DHT22;3968;51.424;6.788;2023-07-29T10:20:07;22.40;99.90
7846;DHT22;3968;51.424;6.788;2023-07-29T10:22:39;22.50;99.90
7846;DHT22;3968;51.424;6.788;2023-07-29T10:28:06;22.40;99.90
7846;DHT22;3968;51.424;6.788;2023-07-29T10:30:32;22.30;99.90
7846;DHT22;3968;51.424;6.788;2023-07-29T10:33:03;22.30;99.90
7846;DHT22;3968;51.424;6.788;2023-07-29T10:35:29;22.30;99.90
7846;DHT22;3968;51.424;6.788;2023-07-29T10:37:56;22.40;99.90
7846;DHT22;3968;51.424;6.788;2023-07-29T10:40:22;22.60;99.90
7846;DHT22;3968;51.424;6.788;2023-07-29T10:43:09;22.80;99.90
7846;DHT22;3968;51.424;6.788;2023-07-29T10:45:40;22.90;99.90
7846;DHT22;3968;51.424;6.788;2023-07-29T10:48:13;22.90;99.90
7846;DHT22;3968;51.424;6.788;2023-07-29T10:50:43;23.00;99.90
7846;DHT22;3968;51.424;6.788;2023-07-29T10:53:08;23.00;99.90
7846;DHT22;3968;51.424;6.788;2023-07-29T10:55:35;23.10;99.90
7846;DHT22;3968;51.424;6.788;2023-07-29T11:00:30;23.30;99.90
7846;DHT22;3968;51.424;6.788;2023-07-29T11:03:00;23.50;99.90
7846;DHT22;3968;51.424;6.788;2023-07-29T11:05:26;23.50;99.90
7846;DHT22;3968;51.424;6.788;2023-07-29T11:07:52;23.60;99.90
7846;DHT22;3968;51.424;6.788;2023-07-29T11:10:18;23.60;99.90
7846;DHT22;3968;51.424;6.788;2023-07-29T11:12:50;23.60;99.90
7846;DHT22;3968;51.424;6.788;2023-07-29T11:15:28;23.50;99.90
7846;DHT22;3968;51.424;6.788;2023-07-29T11:17:56;23.40;99.90
7846;DHT22;3968;51.424;6.788;2023-07-29T11:20:32;23.40;99.90
7846;DHT22;3968;51.424;6.788;2023-07-29T11:23:00;23.30;99.90
7846;DHT22;3968;51.424;6.788;2023-07-29T11:25:28;23.30;99.90
7846;DHT22;3968;51.424;6.788;2023-07-29T11:27:56;23.30;99.90
7846;DHT22;3968;51.424;6.788;2023-07-29T11:30:23;23.30;99.90
7846;DHT22;3968;51.424;6.788;2023-07-29T11:32:49;23.20;99.90
7846;DHT22;3968;51.424;6.788;2023-07-29T11:35:16;23.30;99.90
7846;DHT22;3968;51.424;6.788;2023-07-29T11:37:45;23.40;99.90
7846;DHT22;3968;51.424;6.788;2023-07-29T11:40:19;23.50;99.90
7846;DHT22;3968;51.424;6.788;2023-07-29T11:42:47;23.70;99.90
7846;DHT22;3968;51.424;6.788;2023-07-29T11:45:14;23.90;99.90
7846;DHT22;3968;51.424;6.788;2023-07-29T11:47:39;24.00;99.90
7846;DHT22;3968;51.424;6.788;2023-07-29T11:50:08;24.00;99.90
7846;DHT22;3968;51.424;6.788;2023-07-29T11:52:43;24.00;99.90
7846;DHT22;3968;51.424;6.788;2023-07-29T11:55:10;24.00;99.90
7846;DHT22;3968;51.424;6.788;2023-07-29T11:57:38;24.10;99.90
7846;DHT22;3968;51.424;6.788;2023-07-29T12:00:08;24.10;99.90
7846;DHT22;3968;51.424;6.788;2023-07-29T12:02:37;24.00;99.90
7846;DHT22;3968;51.424;6.788;2023-07-29T12:05:04;24.00;99.90
7846;DHT22;3968;51.424;6.788;2023-07-29T12:07:31;23.90;99.90
7846;DHT22;3968;51.424;6.788;2023-07-29T12:09:57;23.90;99.90
7846;DHT22;3968;51.424;6.788;2023-07-29T12:12:23;23.80;99.90
7846;DHT22;3968;51.424;6.788;2023-07-29T12:14:48;23.80;99.90
7846;DHT22;3968;51.424;6.788;2023-07-29T12:17:15;23.80;99.90
7846;DHT22;3968;51.424;6.788;2023-07-29T12:19:41;23.90;99.90
7846;DHT22;3968;51.424;6.788;2023-07-29T12:22:08;23.90;99.90
7846;DHT22;3968;51.424;6.788;2023-07-29T12:24:37;23.90;99.90
7846;DHT22;3968;51.424;6.788;2023-07-29T12:27:03;23.90;99.90
7846;DHT22;3968;51.424;6.788;2023-07-29T12:29:28;24.00;99.90
7846;DHT22;3968;51.424;6.788;2023-07-29T12:32:02;24.10;99.90
7846;DHT22;3968;51.424;6.788;2023-07-29T12:34:29;24.10;99.90
7846;DHT22;3968;51.424;6.788;2023-07-29T12:36:56;23.90;99.90
7846;DHT22;3968;51.424;6.788;2023-07-29T12:39:42;24.00;99.90
7846;DHT22;3968;51.424;6.788;2023-07-29T12:42:08;24.10;99.90
7846;DHT22;3968;51.424;6.788;2023-07-29T12:44:35;24.20;99.90
7846;DHT22;3968;51.424;6.788;2023-07-29T12:47:02;24.20;99.90
7846;DHT22;3968;51.424;6.788;2023-07-29T12:49:29;24.10;99.90
7846;DHT22;3968;51.424;6.788;2023-07-29T12:51:59;24.00;99.90
7846;DHT22;3968;51.424;6.788;2023-07-29T12:54:25;24.00;99.90
7846;DHT22;3968;51.424;6.788;2023-07-29T12:56:51;23.90;99.90
7846;DHT22;3968;51.424;6.788;2023-07-29T12:59:17;23.90;99.90
7846;DHT22;3968;51.424;6.788;2023-07-29T13:01:42;23.90;99.90
7846;DHT22;3968;51.424;6.788;2023-07-29T13:04:09;23.90;99.90
7846;DHT22;3968;51.424;6.788;2023-07-29T13:06:35;23.90;99.90
7846;DHT22;3968;51.424;6.788;2023-07-29T13:09:00;23.90;99.90
7846;DHT22;3968;51.424;6.788;2023-07-29T13:11:26;23.80;99.90
7846;DHT22;3968;51.424;6.788;2023-07-29T13:13:52;23.80;99.90
7846;DHT22;3968;51.424;6.788;2023-07-29T13:16:17;23.80;99.90
7846;DHT22;3968;51.424;6.788;2023-07-29T13:18:43;23.70;99.90
7846;DHT22;3968;51.424;6.788;2023-07-29T13:21:09;23.60;99.90
7846;DHT22;3968;51.424;6.788;2023-07-29T13:23:35;23.50;99.90
7846;DHT22;3968;51.424;6.788;2023-07-29T13:26:01;23.40;99.90
7846;DHT22;3968;51.424;6.788;2023-07-29T13:28:27;23.20;99.90
7846;DHT22;3968;51.424;6.788;2023-07-29T13:30:52;23.10;99.90
7846;DHT22;3968;51.424;6.788;2023-07-29T13:33:18;22.90;99.90
7846;DHT22;3968;51.424;6.788;2023-07-29T13:35:44;22.80;99.90
7846;DHT22;3968;51.424;6.788;2023-07-29T13:38:09;22.70;99.90
7846;DHT22;3968;51.424;6.788;2023-07-29T13:40:36;22.60;99.90
7846;DHT22;3968;51.424;6.788;2023-07-29T13:43:02;22.60;99.90
7846;DHT22;3968;51.424;6.788;2023-07-29T13:45:27;22.50;99.90
7846;DHT22;3968;51.424;6.788;2023-07-29T13:47:53;22.40;99.90
7846;DHT22;3968;51.424;6.788;2023-07-29T13:50:19;22.30;99.90
7846;DHT22;3968;51.424;6.788;2023-07-29T13:52:44;22.30;99.90
7846;DHT22;3968;51.424;6.788;2023-07-29T13:55:10;22.20;99.90
7846;DHT22;3968;51.424;6.788;2023-07-29T13:57:37;22.10;99.90
7846;DHT22;3968;51.424;6.788;2023-07-29T14:00:03;22.00;99.90
7846;DHT22;3968;51.424;6.788;2023-07-29T14:02:29;21.90;99.90
7846;DHT22;3968;51.424;6.788;2023-07-29T14:04:56;21.90;99.90
7846;DHT22;3968;51.424;6.788;2023-07-29T14:07:22;21.80;99.90
7846;DHT22;3968;51.424;6.788;2023-07-29T14:09:47;21.70;99.90
7846;DHT22;3968;51.424;6.788;2023-07-29T14:12:13;21.80;99.90
7846;DHT22;3968;51.424;6.788;2023-07-29T14:14:41;21.80;99.90
7846;DHT22;3968;51.424;6.788;2023-07-29T14:17:07;22.00;99.90
7846;DHT22;3968;51.424;6.788;2023-07-29T14:19:34;22.20;99.90
7846;DHT22;3968;51.424;6.788;2023-07-29T14:22:00;22.40;99.90
7846;DHT22;3968;51.424;6.788;2023-07-29T14:24:25;22.60;99.90
7846;DHT22;3968;51.424;6.788;2023-07-29T14:26:51;22.90;99.90
7846;DHT22;3968;51.424;6.788;2023-07-29T14:29:16;23.10;99.90
7846;DHT22;3968;51.424;6.788;2023-07-29T14:31:42;23.30;99.90
7846;DHT22;3968;51.424;6.788;2023-07-29T14:34:07;23.40;99.90
7846;DHT22;3968;51.424;6.788;2023-07-29T14:36:33;23.30;99.90
7846;DHT22;3968;51.424;6.788;2023-07-29T14:38:59;23.30;99.90
7846;DHT22;3968;51.424;6.788;2023-07-29T14:41:24;23.20;99.90
7846;DHT22;3968;51.424;6.788;2023-07-29T14:43:50;23.00;99.90
7846;DHT22;3968;51.424;6.788;2023-07-29T14:46:18;22.80;99.90
7846;DHT22;3968;51.424;6.788;2023-07-29T14:48:43;22.60;99.90
7846;DHT22;3968;51.424;6.788;2023-07-29T14:51:10;22.30;99.90
7846;DHT22;3968;51.424;6.788;2023-07-29T14:53:36;22.20;99.90
7846;DHT22;3968;51.424;6.788;2023-07-29T14:56:01;22.00;99.90
7846;DHT22;3968;51.424;6.788;2023-07-29T14:58:27;21.90;99.90
7846;DHT22;3968;51.424;6.788;2023-07-29T15:00:53;21.80;99.90
7846;DHT22;3968;51.424;6.788;2023-07-29T15:03:18;21.60;99.90
7846;DHT22;3968;51.424;6.788;2023-07-29T15:05:44;21.50;99.90
7846;DHT22;3968;51.424;6.788;2023-07-29T15:08:10;21.50;99.90
7846;DHT22;3968;51.424;6.788;2023-07-29T15:10:35;21.40;99.90
7846;DHT22;3968;51.424;6.788;2023-07-29T15:13:02;21.40;99.90
7846;DHT22;3968;51.424;6.788;2023-07-29T15:15:27;21.40;99.90
7846;DHT22;3968;51.424;6.788;2023-07-29T15:17:53;21.50;99.90
7846;DHT22;3968;51.424;6.788;2023-07-29T15:20:19;21.50;99.90
7846;DHT22;3968;51.424;6.788;2023-07-29T15:22:44;21.60;99.90
7846;DHT22;3968;51.424;6.788;2023-07-29T15:25:10;21.60;99.90
7846;DHT22;3968;51.424;6.788;2023-07-29T15:27:37;21.60;99.90
7846;DHT22;3968;51.424;6.788;2023-07-29T15:30:03;21.70;99.90
7846;DHT22;3968;51.424;6.788;2023-07-29T15:32:29;21.80;99.90
7846;DHT22;3968;51.424;6.788;2023-07-29T15:34:54;21.80;99.90
7846;DHT22;3968;51.424;6.788;2023-07-29T15:37:20;22.00;99.90
7846;DHT22;3968;51.424;6.788;2023-07-29T15:39:45;22.20;99.90
7846;DHT22;3968;51.424;6.788;2023-07-29T15:42:11;22.40;99.90
7846;DHT22;3968;51.424;6.788;2023-07-29T15:44:37;22.50;99.90
7846;DHT22;3968;51.424;6.788;2023-07-29T15:47:03;22.60;99.90
7846;DHT22;3968;51.424;6.788;2023-07-29T15:49:29;22.60;99.90
7846;DHT22;3968;51.424;6.788;2023-07-29T15:51:54;22.60;99.90
7846;DHT22;3968;51.424;6.788;2023-07-29T15:54:20;22.70;99.90
7846;DHT22;3968;51.424;6.788;2023-07-29T15:56:46;22.70;99.90
7846;DHT22;3968;51.424;6.788;2023-07-29T15:59:11;22.80;99.90
7846;DHT22;3968;51.424;6.788;2023-07-29T16:01:37;22.60;99.90
7846;DHT22;3968;51.424;6.788;2023-07-29T16:04:03;22.70;99.90
7846;DHT22;3968;51.424;6.788;2023-07-29T16:06:28;22.70;99.90
7846;DHT22;3968;51.424;6.788;2023-07-29T16:08:55;22.70;99.90
7846;DHT22;3968;51.424;6.788;2023-07-29T16:11:23;22.70;99.90